createdAt,value
2023-05-02T00:01:44.276Z,98280.86
2023-05-02T00:04:12.001Z,98275.77
2023-05-02T00:06:39.872Z,98274.52
2023-05-02T00:09:07.606Z,98274.34
2023-05-02T00:11:35.451Z,98272.57
2023-05-02T00:14:03.178Z,98274.98
2023-05-02T00:16:30.909Z,98271.14
2023-05-02T00:18:58.761Z,98271.46
2023-05-02T00:21:29.293Z,98270.06
2023-05-02T00:24:00.233Z,98273.34
2023-05-02T00:26:28.904Z,98266.17
2023-05-02T00:28:56.538Z,98265.10
2023-05-02T00:31:24.281Z,98262.81
2023-05-02T00:33:51.997Z,98259.14
2023-05-02T00:36:19.877Z,98262.79
2023-05-02T00:38:47.747Z,98258.58
2023-05-02T00:41:17.249Z,98258.92
2023-05-02T00:43:45.095Z,98258.38
2023-05-02T00:46:13.500Z,98255.71
2023-05-02T00:48:41.308Z,98254.30
2023-05-02T00:51:12.193Z,98254.44
2023-05-02T00:53:40.591Z,98251.11
2023-05-02T00:56:08.805Z,98251.10
2023-05-02T00:58:38.223Z,98251.24
2023-05-02T01:01:18.256Z,98251.58
2023-05-02T01:03:49.190Z,98249.47
2023-05-02T01:06:39.636Z,98250.84
2023-05-02T01:09:31.435Z,98251.72
2023-05-02T01:12:03.466Z,98249.42
2023-05-02T01:14:34.965Z,98249.92
2023-05-02T01:17:06.549Z,98253.06
2023-05-02T01:19:36.744Z,98249.05
2023-05-02T01:22:06.190Z,98252.53
2023-05-02T01:24:55.527Z,98254.80
2023-05-02T01:27:43.388Z,98256.20
2023-05-02T01:30:11.105Z,98252.01
2023-05-02T01:32:39.710Z,98248.86
2023-05-02T01:35:07.939Z,98250.09
2023-05-02T01:37:37.106Z,98246.59
2023-05-02T01:40:05.329Z,98248.66
2023-05-02T01:42:33.070Z,98249.90
2023-05-02T01:45:00.723Z,98247.45
2023-05-02T01:47:29.389Z,98242.39
2023-05-02T01:49:58.000Z,98238.55
2023-05-02T01:52:25.948Z,98242.23
2023-05-02T01:54:53.691Z,98239.09
2023-05-02T01:57:21.287Z,98235.79
2023-05-02T01:59:48.918Z,98235.13
2023-05-02T02:02:16.706Z,98235.84
2023-05-02T02:04:44.451Z,98233.44
2023-05-02T02:07:13.489Z,98236.26
2023-05-02T02:09:41.146Z,98234.02
2023-05-02T02:12:13.295Z,98234.58
2023-05-02T02:14:43.168Z,98234.13
2023-05-02T02:17:26.649Z,98236.27
2023-05-02T02:19:54.886Z,98235.25
2023-05-02T02:22:24.056Z,98232.31
2023-05-02T02:24:53.710Z,98236.17
2023-05-02T02:27:22.254Z,98229.73
2023-05-02T02:29:49.930Z,98236.74
2023-05-02T02:32:17.548Z,98237.81
2023-05-02T02:34:45.221Z,98236.77
2023-05-02T02:37:20.190Z,98237.48
2023-05-02T02:40:07.214Z,98238.02
2023-05-02T02:42:40.024Z,98238.05
2023-05-02T02:45:46.055Z,98233.85
2023-05-02T02:48:18.204Z,98237.70
2023-05-02T02:50:59.999Z,98235.41
2023-05-02T02:54:18.935Z,98237.17
2023-05-02T02:57:07.132Z,98236.99
2023-05-02T02:59:35.896Z,98239.97
2023-05-02T03:02:10.358Z,98245.21
2023-05-02T03:04:44.589Z,98244.69
2023-05-02T03:07:12.807Z,98245.20
2023-05-02T03:09:44.217Z,98242.06
2023-05-02T03:12:12.188Z,98245.73
2023-05-02T03:14:40.424Z,98245.55
2023-05-02T03:17:10.741Z,98246.08
2023-05-02T03:19:38.439Z,98244.51
2023-05-02T03:22:06.004Z,98244.33
2023-05-02T03:24:33.672Z,98244.84
2023-05-02T03:27:01.414Z,98250.40
2023-05-02T03:29:29.139Z,98250.75
2023-05-02T03:31:56.826Z,98247.60
2023-05-02T03:34:24.490Z,98253.20
2023-05-02T03:36:52.074Z,98253.20
2023-05-02T03:39:19.726Z,98254.58
2023-05-02T03:41:47.399Z,98250.89
2023-05-02T03:44:15.058Z,98262.60
2023-05-02T03:46:43.125Z,98261.89
2023-05-02T03:49:11.069Z,98262.25
2023-05-02T03:51:38.631Z,98262.59
2023-05-02T03:54:06.273Z,98263.29
2023-05-02T03:56:33.872Z,98265.39
2023-05-02T03:59:01.552Z,98267.66
2023-05-02T04:01:29.258Z,98267.13
2023-05-02T04:03:57.044Z,98266.96
2023-05-02T04:06:24.826Z,98268.36
2023-05-02T04:08:52.568Z,98269.44
2023-05-02T04:11:20.431Z,98271.36
2023-05-02T04:13:48.054Z,98272.61
2023-05-02T04:16:15.721Z,98271.25
2023-05-02T04:18:43.492Z,98270.59
2023-05-02T04:21:11.117Z,98277.42
2023-05-02T04:23:39.171Z,98280.77
2023-05-02T04:26:07.235Z,98283.96
2023-05-02T04:28:39.043Z,98284.70
2023-05-02T04:31:07.527Z,98284.57
2023-05-02T04:33:35.255Z,98286.52
2023-05-02T04:36:03.020Z,98290.06
2023-05-02T04:38:30.674Z,98288.52
2023-05-02T04:40:58.333Z,98290.67
2023-05-02T04:43:26.279Z,98284.23
2023-05-02T04:45:54.061Z,98282.86
2023-05-02T04:48:22.123Z,98285.15
2023-05-02T04:50:49.760Z,98283.61
2023-05-02T04:53:17.352Z,98279.27
2023-05-02T04:55:44.964Z,98284.88
2023-05-02T04:58:12.803Z,98285.79
2023-05-02T05:00:40.414Z,98288.27
2023-05-02T05:03:08.235Z,98285.30
2023-05-02T05:05:35.993Z,98285.67
2023-05-02T05:08:03.981Z,98287.98
2023-05-02T05:10:31.583Z,98288.89
2023-05-02T05:12:59.199Z,98295.02
2023-05-02T05:15:27.452Z,98302.91
2023-05-02T05:17:55.166Z,98301.19
2023-05-02T05:20:22.886Z,98297.86
2023-05-02T05:22:50.729Z,98300.69
2023-05-02T05:25:18.495Z,98304.55
2023-05-02T05:27:46.653Z,98302.10
2023-05-02T05:30:14.298Z,98303.33
2023-05-02T05:32:41.890Z,98313.33
2023-05-02T05:35:10.227Z,98317.53
2023-05-02T05:37:39.498Z,98316.81
2023-05-02T05:40:08.599Z,98316.46
2023-05-02T05:42:36.267Z,98321.35
2023-05-02T05:45:04.443Z,98323.11
2023-05-02T05:47:32.290Z,98320.80
2023-05-02T05:50:01.078Z,98322.35
2023-05-02T05:52:29.376Z,98326.36
2023-05-02T05:54:57.217Z,98330.35
2023-05-02T05:57:24.968Z,98332.07
2023-05-02T05:59:52.976Z,98333.59
2023-05-02T06:02:20.834Z,98335.98
2023-05-02T06:04:48.650Z,98338.22
2023-05-02T06:07:16.462Z,98345.55
2023-05-02T06:09:44.237Z,98346.55
2023-05-02T06:12:11.875Z,98352.48
2023-05-02T06:14:39.642Z,98358.59
2023-05-02T06:17:07.424Z,98359.06
2023-05-02T06:19:35.131Z,98357.42
2023-05-02T06:22:02.797Z,98359.30
2023-05-02T06:24:31.137Z,98358.55
2023-05-02T06:26:58.936Z,98362.34
2023-05-02T06:29:26.597Z,98369.83
2023-05-02T06:31:57.206Z,98367.98
2023-05-02T06:34:25.138Z,98373.19
2023-05-02T06:36:58.643Z,98375.42
2023-05-02T06:39:26.328Z,98378.69
2023-05-02T06:41:58.203Z,98372.98
2023-05-02T06:44:26.063Z,98373.28
2023-05-02T06:46:53.778Z,98377.58
2023-05-02T06:49:22.548Z,98379.06
2023-05-02T06:51:50.211Z,98376.01
2023-05-02T06:54:17.939Z,98378.90
2023-05-02T06:56:45.859Z,98377.97
2023-05-02T06:59:13.478Z,98380.21
2023-05-02T07:01:41.469Z,98384.21
2023-05-02T07:04:09.528Z,98378.71
2023-05-02T07:06:37.328Z,98382.55
2023-05-02T07:09:04.996Z,98384.95
2023-05-02T07:11:32.767Z,98384.15
2023-05-02T07:14:00.568Z,98384.27
2023-05-02T07:16:28.390Z,98385.95
2023-05-02T07:18:56.064Z,98385.38
2023-05-02T07:21:23.686Z,98389.37
2023-05-02T07:23:51.247Z,98393.04
2023-05-02T07:26:20.273Z,98398.96
2023-05-02T07:28:48.054Z,98398.33
2023-05-02T07:31:17.645Z,98405.29
2023-05-02T07:33:46.540Z,98411.69
2023-05-02T07:36:14.191Z,98414.23
2023-05-02T07:38:41.822Z,98419.59
2023-05-02T07:41:09.469Z,98416.84
2023-05-02T07:43:37.110Z,98418.15
2023-05-02T07:46:06.530Z,98418.05
2023-05-02T07:48:34.951Z,98415.64
2023-05-02T07:51:06.912Z,98423.23
2023-05-02T07:53:34.603Z,98428.21
2023-05-02T07:56:08.467Z,98425.83
2023-05-02T07:58:38.960Z,98428.20
2023-05-02T08:01:06.656Z,98430.08
2023-05-02T08:03:34.351Z,98436.23
2023-05-02T08:06:02.525Z,98437.71
2023-05-02T08:08:30.412Z,98439.56
2023-05-02T08:10:58.039Z,98441.76
2023-05-02T08:13:25.817Z,98440.59
2023-05-02T08:15:58.174Z,98443.89
2023-05-02T08:18:26.160Z,98445.75
2023-05-02T08:20:58.537Z,98450.60
2023-05-02T08:23:26.196Z,98448.92
2023-05-02T08:25:54.308Z,98445.88
2023-05-02T08:28:21.894Z,98445.02
2023-05-02T08:30:49.582Z,98451.75
2023-05-02T08:33:17.245Z,98450.09
2023-05-02T08:35:45.047Z,98455.89
2023-05-02T08:38:12.688Z,98464.31
2023-05-02T08:40:42.937Z,98462.33
2023-05-02T08:43:11.935Z,98457.67
2023-05-02T08:45:41.023Z,98460.79
2023-05-02T08:48:10.532Z,98461.41
2023-05-02T08:50:43.446Z,98462.91
2023-05-02T08:53:11.678Z,98462.99
2023-05-02T08:55:40.822Z,98470.48
2023-05-02T08:58:08.999Z,98465.29
2023-05-02T09:00:41.116Z,98467.80
2023-05-02T09:03:23.987Z,98464.67
2023-05-02T09:05:53.463Z,98464.84
2023-05-02T09:08:24.472Z,98464.16
2023-05-02T09:10:52.381Z,98465.44
2023-05-02T09:13:34.013Z,98465.25
2023-05-02T09:16:09.577Z,98463.05
2023-05-02T09:18:38.178Z,98460.48
2023-05-02T09:21:17.952Z,98461.69
2023-05-02T09:23:49.250Z,98464.50
2023-05-02T09:26:33.993Z,98469.04
2023-05-02T09:29:03.390Z,98472.15
2023-05-02T09:31:54.789Z,98471.68
2023-05-02T09:34:23.201Z,98469.81
2023-05-02T09:36:52.188Z,98479.10
2023-05-02T09:39:23.806Z,98480.02
2023-05-02T09:41:53.419Z,98481.66
2023-05-02T09:44:23.357Z,98490.59
2023-05-02T09:46:52.444Z,98491.02
2023-05-02T09:49:35.548Z,98493.99
2023-05-02T09:52:13.832Z,98490.71
2023-05-02T09:54:41.539Z,98496.63
2023-05-02T09:57:11.055Z,98501.87
2023-05-02T09:59:39.597Z,98501.09
2023-05-02T10:02:09.726Z,98506.73
2023-05-02T10:04:37.517Z,98506.73
2023-05-02T10:07:06.648Z,98510.23
2023-05-02T10:09:35.620Z,98512.16
2023-05-02T10:12:08.371Z,98508.71
2023-05-02T10:14:39.973Z,98510.54
2023-05-02T10:17:23.096Z,98511.91
2023-05-02T10:19:59.240Z,98512.09
2023-05-02T10:22:27.111Z,98514.96
2023-05-02T10:24:54.901Z,98516.60
2023-05-02T10:27:22.572Z,98519.80
2023-05-02T10:29:50.214Z,98515.42
2023-05-02T10:32:17.991Z,98517.17
2023-05-02T10:34:45.564Z,98517.94
2023-05-02T10:37:13.192Z,98518.98
2023-05-02T10:39:40.785Z,98514.55
2023-05-02T10:42:08.415Z,98517.06
2023-05-02T10:44:37.070Z,98524.89
2023-05-02T10:47:21.540Z,98525.55
2023-05-02T10:49:50.050Z,98525.28
2023-05-02T10:52:34.246Z,98527.31
2023-05-02T10:55:21.565Z,98528.27
2023-05-02T10:58:01.126Z,98537.08
2023-05-02T11:00:30.283Z,98531.83
2023-05-02T11:02:58.240Z,98531.56
2023-05-02T11:05:26.505Z,98531.85
2023-05-02T11:08:16.814Z,98533.54
2023-05-02T11:10:46.408Z,98536.95
2023-05-02T11:13:14.097Z,98535.94
2023-05-02T11:15:41.837Z,98537.42
2023-05-02T11:18:12.543Z,98535.13
2023-05-02T11:20:44.182Z,98536.21
2023-05-02T11:23:27.302Z,98535.99
2023-05-02T11:25:56.296Z,98538.21
2023-05-02T11:28:45.911Z,98538.91
2023-05-02T11:31:57.256Z,98544.98
2023-05-02T11:34:25.116Z,98545.64
2023-05-02T11:36:52.769Z,98548.69
2023-05-02T11:39:21.155Z,98548.03
2023-05-02T11:41:51.241Z,98557.05
2023-05-02T11:44:18.900Z,98558.64
2023-05-02T11:46:46.702Z,98561.95
2023-05-02T11:49:15.231Z,98556.33
2023-05-02T11:51:42.945Z,98562.52
2023-05-02T11:54:18.472Z,98561.70
2023-05-02T11:56:46.595Z,98568.19
2023-05-02T11:59:14.235Z,98571.79
2023-05-02T12:01:53.732Z,98575.45
2023-05-02T12:04:23.999Z,98575.98
2023-05-02T12:06:55.658Z,98577.45
2023-05-02T12:09:23.763Z,98574.68
2023-05-02T12:11:54.853Z,98574.59
2023-05-02T12:14:33.665Z,98580.48
2023-05-02T12:17:02.941Z,98579.67
2023-05-02T12:19:30.559Z,98584.92
2023-05-02T12:21:58.258Z,98584.30
2023-05-02T12:24:26.043Z,98586.05
2023-05-02T12:27:09.663Z,98582.42
2023-05-02T12:29:41.491Z,98582.97
2023-05-02T12:32:09.982Z,98589.80
2023-05-02T12:34:38.084Z,98589.92
2023-05-02T12:37:06.278Z,98593.77
2023-05-02T12:39:40.777Z,98596.32
2023-05-02T12:42:15.506Z,98593.65
2023-05-02T12:44:44.665Z,98598.31
2023-05-02T12:47:13.315Z,98594.37
2023-05-02T12:50:01.715Z,98597.11
2023-05-02T12:52:57.802Z,98589.98
2023-05-02T12:55:27.361Z,98595.14
2023-05-02T12:58:05.522Z,98595.91
2023-05-02T13:00:34.848Z,98599.89
2023-05-02T13:03:02.668Z,98599.88
2023-05-02T13:05:30.449Z,98601.09
2023-05-02T13:07:59.259Z,98609.02
2023-05-02T13:10:27.860Z,98606.50
2023-05-02T13:12:55.625Z,98606.70
2023-05-02T13:15:23.263Z,98602.68
2023-05-02T13:17:52.379Z,98605.36
2023-05-02T13:20:20.148Z,98602.23
2023-05-02T13:22:47.859Z,98604.39
2023-05-02T13:25:15.585Z,98602.62
2023-05-02T13:27:43.532Z,98603.02
2023-05-02T13:30:12.061Z,98600.00
2023-05-02T13:32:40.131Z,98594.05
2023-05-02T13:35:08.449Z,98598.92
2023-05-02T13:37:36.254Z,98590.94
2023-05-02T13:40:05.139Z,98589.71
2023-05-02T13:42:33.036Z,98590.93
2023-05-02T13:45:03.142Z,98596.20
2023-05-02T13:47:31.357Z,98601.60
2023-05-02T13:49:59.502Z,98602.23
2023-05-02T13:52:27.468Z,98607.54
2023-05-02T13:54:55.094Z,98606.08
2023-05-02T13:57:22.657Z,98601.79
2023-05-02T13:59:51.367Z,98596.61
2023-05-02T14:02:19.019Z,98599.89
2023-05-02T14:04:46.690Z,98601.48
2023-05-02T14:07:14.266Z,98602.63
2023-05-02T14:09:41.935Z,98609.11
2023-05-02T14:12:10.320Z,98607.07
2023-05-02T14:14:38.253Z,98610.30
2023-05-02T14:17:06.336Z,98613.27
2023-05-02T14:19:34.081Z,98608.98
2023-05-02T14:22:01.851Z,98609.05
2023-05-02T14:24:29.461Z,98607.59
2023-05-02T14:26:59.457Z,98614.48
2023-05-02T14:29:27.102Z,98623.77
2023-05-02T14:31:54.977Z,98625.58
2023-05-02T14:34:26.833Z,98625.28
2023-05-02T14:36:54.498Z,98625.08
2023-05-02T14:39:22.162Z,98624.55
2023-05-02T14:41:49.794Z,98624.48
2023-05-02T14:44:18.394Z,98625.77
2023-05-02T14:46:46.760Z,98625.71
2023-05-02T14:49:14.512Z,98629.84
2023-05-02T14:51:43.069Z,98629.27
2023-05-02T14:54:10.808Z,98630.94
2023-05-02T14:56:38.503Z,98634.94
2023-05-02T14:59:06.285Z,98634.27
2023-05-02T15:01:34.107Z,98638.75
2023-05-02T15:06:32.987Z,98653.08
2023-05-02T15:09:01.802Z,98655.51
2023-05-02T15:11:29.373Z,98662.19
2023-05-02T15:13:59.279Z,98665.10
2023-05-02T15:16:27.655Z,98672.63
2023-05-02T15:18:55.893Z,98671.84
2023-05-02T15:21:23.801Z,98679.48
2023-05-02T15:23:51.466Z,98678.60
2023-05-02T15:26:19.231Z,98681.72
2023-05-02T15:28:46.862Z,98683.44
2023-05-02T15:31:14.450Z,98690.84
2023-05-02T15:33:42.013Z,98695.61
2023-05-02T15:36:09.869Z,98700.05
2023-05-02T15:38:42.769Z,98701.80
2023-05-02T15:41:11.018Z,98706.14
2023-05-02T15:43:38.681Z,98704.84
2023-05-02T15:46:06.391Z,98708.14
2023-05-02T15:48:35.051Z,98710.36
2023-05-02T15:51:03.007Z,98710.98
2023-05-02T15:53:30.873Z,98712.48
2023-05-02T15:55:58.491Z,98716.77
2023-05-02T15:58:26.137Z,98719.83
2023-05-02T16:00:56.088Z,98719.68
2023-05-02T16:03:23.788Z,98728.34
2023-05-02T16:05:55.002Z,98733.31
2023-05-02T16:08:22.721Z,98733.35
2023-05-02T16:10:50.451Z,98731.62
2023-05-02T16:13:18.060Z,98729.70
2023-05-02T16:15:47.984Z,98735.57
2023-05-02T16:18:16.013Z,98739.30
2023-05-02T16:20:43.875Z,98738.11
2023-05-02T16:23:11.533Z,98736.73
2023-05-02T16:25:39.154Z,98738.70
2023-05-02T16:28:07.138Z,98739.61
2023-05-02T16:30:38.018Z,98734.84
2023-05-02T16:33:05.769Z,98739.45
2023-05-02T16:35:33.482Z,98734.54
2023-05-02T16:38:01.290Z,98731.17
2023-05-02T16:40:28.974Z,98728.71
2023-05-02T16:42:56.895Z,98727.48
2023-05-02T16:45:24.627Z,98725.71
2023-05-02T16:47:52.306Z,98724.31
2023-05-02T16:50:20.071Z,98728.56
2023-05-02T16:52:47.772Z,98731.39
2023-05-02T16:55:16.640Z,98733.67
2023-05-02T16:57:44.271Z,98735.98
2023-05-02T17:00:14.835Z,98733.88
2023-05-02T17:02:45.711Z,98738.64
2023-05-02T17:05:13.724Z,98746.41
2023-05-02T17:07:41.321Z,98747.67
2023-05-02T17:10:09.725Z,98751.91
2023-05-02T17:12:37.342Z,98754.55
2023-05-02T17:15:05.750Z,98756.88
2023-05-02T17:17:33.386Z,98762.52
2023-05-02T17:20:01.313Z,98769.40
2023-05-02T17:22:29.241Z,98774.70
2023-05-02T17:24:56.854Z,98773.48
2023-05-02T17:27:24.462Z,98779.48
2023-05-02T17:29:52.279Z,98785.10
2023-05-02T17:32:19.874Z,98784.75
2023-05-02T17:34:47.504Z,98790.04
2023-05-02T17:37:15.699Z,98794.78
2023-05-02T17:39:43.323Z,98798.30
2023-05-02T17:42:11.095Z,98796.20
2023-05-02T17:44:38.706Z,98794.79
2023-05-02T17:47:06.457Z,98790.92
2023-05-02T17:49:35.536Z,98786.19
2023-05-02T17:52:05.112Z,98778.26
2023-05-02T17:54:32.735Z,98768.77
2023-05-02T17:57:00.410Z,98764.16
2023-05-02T17:59:28.260Z,98765.39
2023-05-02T18:01:56.433Z,98765.20
2023-05-02T18:04:24.805Z,98772.77
2023-05-02T18:06:52.593Z,98779.08
2023-05-02T18:09:20.343Z,98780.67
2023-05-02T18:11:48.466Z,98784.89
2023-05-02T18:14:16.082Z,98783.30
2023-05-02T18:16:48.413Z,98788.05
2023-05-02T18:19:16.151Z,98784.73
2023-05-02T18:21:44.574Z,98787.70
2023-05-02T18:24:12.366Z,98793.15
2023-05-02T18:26:40.554Z,98804.56
2023-05-02T18:29:09.306Z,98815.98
2023-05-02T18:31:40.433Z,98827.23
2023-05-02T18:34:08.317Z,98842.16
2023-05-02T18:36:37.115Z,98850.58
2023-05-02T18:39:04.756Z,98854.23
2023-05-02T18:41:32.450Z,98860.70
2023-05-02T18:44:00.752Z,98864.39
2023-05-02T18:46:28.827Z,98863.52
2023-05-02T18:48:57.156Z,98869.30
2023-05-02T18:51:24.797Z,98872.82
2023-05-02T18:53:52.455Z,98874.58
2023-05-02T18:56:20.053Z,98877.55
2023-05-02T18:58:49.063Z,98880.86
2023-05-02T19:01:16.947Z,98885.05
2023-05-02T19:03:44.757Z,98890.63
2023-05-02T19:06:13.412Z,98888.68
2023-05-02T19:08:41.331Z,98890.42
2023-05-02T19:11:09.365Z,98890.38
2023-05-02T19:13:37.084Z,98892.08
2023-05-02T19:16:05.598Z,98892.94
2023-05-02T19:18:35.172Z,98892.76
2023-05-02T19:21:13.168Z,98895.75
2023-05-02T19:23:41.854Z,98895.91
2023-05-02T19:26:16.721Z,98900.80
2023-05-02T19:28:44.611Z,98900.80
2023-05-02T19:31:13.167Z,98905.51
2023-05-02T19:33:41.110Z,98910.77
2023-05-02T19:36:08.830Z,98909.16
2023-05-02T19:38:36.543Z,98909.98
2023-05-02T19:41:04.210Z,98910.48
2023-05-02T19:43:31.946Z,98913.11
2023-05-02T19:45:59.553Z,98914.17
2023-05-02T19:48:27.801Z,98915.59
2023-05-02T19:50:55.431Z,98915.26
2023-05-02T19:53:23.290Z,98917.35
2023-05-02T19:55:50.929Z,98913.99
2023-05-02T19:58:18.538Z,98907.65
2023-05-02T20:00:49.266Z,98907.44
2023-05-02T20:03:17.066Z,98909.52
2023-05-02T20:05:44.854Z,98909.65
2023-05-02T20:08:12.510Z,98913.70
2023-05-02T20:10:40.177Z,98920.05
2023-05-02T20:13:07.769Z,98924.27
2023-05-02T20:15:35.528Z,98935.83
2023-05-02T20:18:03.380Z,98940.02
2023-05-02T20:20:31.099Z,98941.36
2023-05-02T20:22:59.251Z,98937.08
2023-05-02T20:25:26.913Z,98941.61
2023-05-02T20:27:54.555Z,98944.19
2023-05-02T20:30:22.233Z,98942.95
2023-05-02T20:32:49.843Z,98943.48
2023-05-02T20:35:18.410Z,98941.73
2023-05-02T20:37:46.874Z,98939.64
2023-05-02T20:40:14.599Z,98939.63
2023-05-02T20:42:43.949Z,98938.92
2023-05-02T20:45:12.640Z,98936.60
2023-05-02T20:47:40.382Z,98933.77
2023-05-02T20:50:09.371Z,98941.81
2023-05-02T20:52:38.999Z,98939.15
2023-05-02T20:55:06.943Z,98940.52
2023-05-02T20:57:34.713Z,98947.05
2023-05-02T21:00:03.729Z,98947.07
2023-05-02T21:02:31.663Z,98947.77
2023-05-02T21:04:59.322Z,98949.36
2023-05-02T21:07:27.103Z,98956.55
2023-05-02T21:09:54.719Z,98958.11
2023-05-02T21:12:22.376Z,98958.06
2023-05-02T21:14:50.108Z,98957.30
2023-05-02T21:17:17.785Z,98955.69
2023-05-02T21:19:45.444Z,98956.55
2023-05-02T21:22:13.095Z,98959.70
2023-05-02T21:24:40.699Z,98965.16
2023-05-02T21:27:08.457Z,98962.55
2023-05-02T21:29:36.228Z,98959.23
2023-05-02T21:32:04.653Z,98959.75
2023-05-02T21:34:32.511Z,98957.60
2023-05-02T21:37:00.681Z,98960.74
2023-05-02T21:39:28.332Z,98958.60
2023-05-02T21:41:56.421Z,98955.95
2023-05-02T21:44:24.091Z,98962.44
2023-05-02T21:46:51.778Z,98962.84
2023-05-02T21:49:19.558Z,98964.11
2023-05-02T21:51:47.204Z,98964.30
2023-05-02T21:54:14.785Z,98964.11
2023-05-02T21:56:42.994Z,98964.42
2023-05-02T21:59:10.630Z,98969.49
2023-05-02T22:01:38.208Z,98969.98
2023-05-02T22:04:06.504Z,98969.78
2023-05-02T22:06:34.642Z,98971.85
2023-05-02T22:09:02.426Z,98974.15
2023-05-02T22:11:31.575Z,98981.53
2023-05-02T22:13:59.164Z,98980.13
2023-05-02T22:16:26.841Z,98985.75
2023-05-02T22:18:54.543Z,98989.23
2023-05-02T22:21:22.408Z,98986.74
2023-05-02T22:23:50.036Z,98994.62
2023-05-02T22:26:17.663Z,98991.27
2023-05-02T22:28:45.404Z,98995.06
2023-05-02T22:31:14.188Z,98995.91
2023-05-02T22:33:42.594Z,98997.49
2023-05-02T22:36:10.246Z,98993.69
2023-05-02T22:38:39.942Z,98991.58
2023-05-02T22:41:07.792Z,98993.15
2023-05-02T22:43:35.776Z,98991.38
2023-05-02T22:46:03.565Z,98993.61
2023-05-02T22:48:31.204Z,98991.14
2023-05-02T22:50:58.799Z,98993.37
2023-05-02T22:53:26.481Z,99001.38
2023-05-02T22:55:54.089Z,98998.57
2023-05-02T22:58:21.669Z,99000.85
2023-05-02T23:00:49.324Z,99000.84
2023-05-02T23:03:17.022Z,98999.08
2023-05-02T23:05:45.018Z,99002.55
2023-05-02T23:08:12.699Z,98998.46
2023-05-02T23:10:40.573Z,98995.96
2023-05-02T23:13:08.206Z,98996.42
2023-05-02T23:15:36.447Z,98998.29
2023-05-02T23:18:04.307Z,98998.80
2023-05-02T23:20:33.482Z,99000.73
2023-05-02T23:23:01.178Z,98997.59
2023-05-02T23:25:28.769Z,98997.41
2023-05-02T23:27:56.452Z,98999.33
2023-05-02T23:30:24.642Z,98998.45
2023-05-02T23:32:52.414Z,99005.41
2023-05-02T23:35:20.495Z,99002.59
2023-05-02T23:37:48.414Z,99000.08
2023-05-02T23:40:16.104Z,99003.20
2023-05-02T23:42:43.762Z,98998.10
2023-05-02T23:45:11.826Z,98998.14
2023-05-02T23:47:39.438Z,99002.77
2023-05-02T23:50:07.847Z,98996.65
2023-05-02T23:52:35.706Z,98996.15
2023-05-02T23:55:03.457Z,99000.15
2023-05-02T23:57:31.168Z,99001.73
2023-05-02T23:59:58.825Z,99003.29
